sensor_id;sensor_type;location;lat;lon;timestamp;P1;durP1;ratioP1;P2;durP2;ratioP2
30249;SDS011;17064;47.974;13.826;2022-08-21T00:05:05;2.80;;;2.40;;
30249;SDS011;17064;47.974;13.826;2022-08-21T00:10:26;2.83;;;2.33;;
30249;SDS011;17064;47.974;13.826;2022-08-21T00:15:48;2.20;;;2.00;;
30249;SDS011;17064;47.974;13.826;2022-08-21T00:21:11;2.35;;;2.10;;
30249;SDS011;17064;47.974;13.826;2022-08-21T00:31:53;2.33;;;2.13;;
30249;SDS011;17064;47.974;13.826;2022-08-21T00:37:14;2.53;;;2.15;;
30249;SDS011;17064;47.974;13.826;2022-08-21T00:42:36;2.78;;;1.92;;
30249;SDS011;17064;47.974;13.826;2022-08-21T00:47:57;2.00;;;1.70;;
30249;SDS011;17064;47.974;13.826;2022-08-21T00:53:19;2.15;;;1.95;;
30249;SDS011;17064;47.974;13.826;2022-08-21T00:58:40;1.98;;;1.80;;
30249;SDS011;17064;47.974;13.826;2022-08-21T01:04:03;3.40;;;1.77;;
30249;SDS011;17064;47.974;13.826;2022-08-21T01:09:24;1.95;;;1.60;;
30249;SDS011;17064;47.974;13.826;2022-08-21T01:14:45;3.15;;;1.80;;
30249;SDS011;17064;47.974;13.826;2022-08-21T01:20:07;2.03;;;1.83;;
30249;SDS011;17064;47.974;13.826;2022-08-21T01:25:30;5.05;;;1.73;;
30249;SDS011;17064;47.974;13.826;2022-08-21T01:30:52;3.50;;;1.97;;
30249;SDS011;17064;47.974;13.826;2022-08-21T01:36:15;1.58;;;1.48;;
30249;SDS011;17064;47.974;13.826;2022-08-21T01:41:36;2.30;;;1.70;;
30249;SDS011;17064;47.974;13.826;2022-08-21T01:46:58;1.95;;;1.65;;
30249;SDS011;17064;47.974;13.826;2022-08-21T01:52:20;2.08;;;1.88;;
30249;SDS011;17064;47.974;13.826;2022-08-21T01:57:42;2.47;;;1.60;;
30249;SDS011;17064;47.974;13.826;2022-08-21T02:03:04;2.75;;;1.60;;
30249;SDS011;17064;47.974;13.826;2022-08-21T02:08:25;3.45;;;1.80;;
30249;SDS011;17064;47.974;13.826;2022-08-21T02:13:47;2.07;;;1.97;;
30249;SDS011;17064;47.974;13.826;2022-08-21T02:19:09;3.17;;;1.85;;
30249;SDS011;17064;47.974;13.826;2022-08-21T02:24:31;4.78;;;2.08;;
30249;SDS011;17064;47.974;13.826;2022-08-21T02:29:52;3.53;;;1.85;;
30249;SDS011;17064;47.974;13.826;2022-08-21T02:35:15;2.65;;;2.45;;
30249;SDS011;17064;47.974;13.826;2022-08-21T02:40:37;2.85;;;2.47;;
30249;SDS011;17064;47.974;13.826;2022-08-21T02:46:00;2.33;;;2.13;;
30249;SDS011;17064;47.974;13.826;2022-08-21T02:51:21;4.97;;;2.60;;
30249;SDS011;17064;47.974;13.826;2022-08-21T02:56:43;2.95;;;2.60;;
30249;SDS011;17064;47.974;13.826;2022-08-21T03:02:04;3.35;;;2.28;;
30249;SDS011;17064;47.974;13.826;2022-08-21T03:07:25;3.03;;;2.70;;
30249;SDS011;17064;47.974;13.826;2022-08-21T03:12:47;4.07;;;2.45;;
30249;SDS011;17064;47.974;13.826;2022-08-21T03:18:09;2.90;;;2.60;;
30249;SDS011;17064;47.974;13.826;2022-08-21T03:23:31;3.03;;;2.75;;
30249;SDS011;17064;47.974;13.826;2022-08-21T03:28:52;3.15;;;2.40;;
30249;SDS011;17064;47.974;13.826;2022-08-21T03:34:13;9.77;;;3.40;;
30249;SDS011;17064;47.974;13.826;2022-08-21T03:39:34;3.00;;;2.70;;
30249;SDS011;17064;47.974;13.826;2022-08-21T03:44:55;3.28;;;2.97;;
30249;SDS011;17064;47.974;13.826;2022-08-21T03:50:16;4.38;;;3.15;;
30249;SDS011;17064;47.974;13.826;2022-08-21T03:55:37;8.80;;;3.55;;
30249;SDS011;17064;47.974;13.826;2022-08-21T04:01:00;3.40;;;2.80;;
30249;SDS011;17064;47.974;13.826;2022-08-21T04:06:22;2.97;;;2.67;;
30249;SDS011;17064;47.974;13.826;2022-08-21T04:11:44;5.78;;;3.00;;
30249;SDS011;17064;47.974;13.826;2022-08-21T04:17:08;3.63;;;2.53;;
30249;SDS011;17064;47.974;13.826;2022-08-21T04:22:29;3.30;;;2.35;;
30249;SDS011;17064;47.974;13.826;2022-08-21T04:27:50;3.20;;;2.20;;
30249;SDS011;17064;47.974;13.826;2022-08-21T04:33:11;6.22;;;2.40;;
30249;SDS011;17064;47.974;13.826;2022-08-21T04:38:33;4.22;;;2.45;;
30249;SDS011;17064;47.974;13.826;2022-08-21T04:43:54;8.57;;;3.55;;
30249;SDS011;17064;47.974;13.826;2022-08-21T04:49:16;6.85;;;4.90;;
30249;SDS011;17064;47.974;13.826;2022-08-21T04:54:37;4.70;;;4.13;;
30249;SDS011;17064;47.974;13.826;2022-08-21T04:59:58;5.18;;;4.20;;
30249;SDS011;17064;47.974;13.826;2022-08-21T05:05:20;4.32;;;3.50;;
30249;SDS011;17064;47.974;13.826;2022-08-21T05:10:41;8.23;;;4.22;;
30249;SDS011;17064;47.974;13.826;2022-08-21T05:16:04;11.68;;;6.05;;
30249;SDS011;17064;47.974;13.826;2022-08-21T05:21:25;10.57;;;7.13;;
30249;SDS011;17064;47.974;13.826;2022-08-21T05:26:47;13.63;;;9.02;;
30249;SDS011;17064;47.974;13.826;2022-08-21T05:32:12;15.80;;;10.63;;
30249;SDS011;17064;47.974;13.826;2022-08-21T05:37:34;21.35;;;13.73;;
30249;SDS011;17064;47.974;13.826;2022-08-21T05:42:56;27.52;;;15.52;;
30249;SDS011;17064;47.974;13.826;2022-08-21T05:48:18;22.15;;;14.63;;
30249;SDS011;17064;47.974;13.826;2022-08-21T05:53:41;21.98;;;13.57;;
30249;SDS011;17064;47.974;13.826;2022-08-21T05:59:04;16.98;;;12.02;;
30249;SDS011;17064;47.974;13.826;2022-08-21T06:04:25;14.20;;;10.18;;
30249;SDS011;17064;47.974;13.826;2022-08-21T06:09:46;11.93;;;8.88;;
30249;SDS011;17064;47.974;13.826;2022-08-21T06:15:07;13.20;;;8.70;;
30249;SDS011;17064;47.974;13.826;2022-08-21T06:20:29;10.98;;;7.70;;
30249;SDS011;17064;47.974;13.826;2022-08-21T06:25:50;9.55;;;6.82;;
30249;SDS011;17064;47.974;13.826;2022-08-21T06:31:12;7.55;;;6.60;;
30249;SDS011;17064;47.974;13.826;2022-08-21T06:36:38;11.23;;;6.95;;
30249;SDS011;17064;47.974;13.826;2022-08-21T06:41:59;11.75;;;6.57;;
30249;SDS011;17064;47.974;13.826;2022-08-21T06:47:21;10.23;;;6.28;;
30249;SDS011;17064;47.974;13.826;2022-08-21T06:52:42;12.65;;;7.25;;
30249;SDS011;17064;47.974;13.826;2022-08-21T06:58:03;9.20;;;6.28;;
30249;SDS011;17064;47.974;13.826;2022-08-21T07:03:27;9.15;;;5.32;;
30249;SDS011;17064;47.974;13.826;2022-08-21T07:08:53;8.25;;;5.20;;
30249;SDS011;17064;47.974;13.826;2022-08-21T07:14:14;8.52;;;4.60;;
30249;SDS011;17064;47.974;13.826;2022-08-21T07:19:35;6.00;;;4.85;;
30249;SDS011;17064;47.974;13.826;2022-08-21T07:24:56;5.88;;;4.35;;
30249;SDS011;17064;47.974;13.826;2022-08-21T07:30:17;9.52;;;4.18;;
30249;SDS011;17064;47.974;13.826;2022-08-21T07:35:38;8.15;;;4.35;;
30249;SDS011;17064;47.974;13.826;2022-08-21T07:41:00;7.07;;;3.28;;
30249;SDS011;17064;47.974;13.826;2022-08-21T07:46:22;5.18;;;3.63;;
30249;SDS011;17064;47.974;13.826;2022-08-21T07:51:43;10.45;;;4.10;;
30249;SDS011;17064;47.974;13.826;2022-08-21T07:57:04;6.00;;;3.88;;
30249;SDS011;17064;47.974;13.826;2022-08-21T08:02:27;7.97;;;3.90;;
30249;SDS011;17064;47.974;13.826;2022-08-21T08:07:50;7.38;;;3.65;;
30249;SDS011;17064;47.974;13.826;2022-08-21T08:13:11;6.97;;;3.72;;
30249;SDS011;17064;47.974;13.826;2022-08-21T08:18:32;7.05;;;3.50;;
30249;SDS011;17064;47.974;13.826;2022-08-21T08:23:53;6.47;;;3.72;;
30249;SDS011;17064;47.974;13.826;2022-08-21T08:29:14;5.78;;;3.55;;
30249;SDS011;17064;47.974;13.826;2022-08-21T08:34:36;5.57;;;3.70;;
30249;SDS011;17064;47.974;13.826;2022-08-21T08:39:58;5.57;;;3.53;;
30249;SDS011;17064;47.974;13.826;2022-08-21T08:45:20;6.97;;;3.85;;
30249;SDS011;17064;47.974;13.826;2022-08-21T08:50:48;5.65;;;4.25;;
30249;SDS011;17064;47.974;13.826;2022-08-21T08:56:13;7.40;;;3.97;;
30249;SDS011;17064;47.974;13.826;2022-08-21T09:01:34;8.68;;;4.28;;
30249;SDS011;17064;47.974;13.826;2022-08-21T09:29:46;5.32;;;3.28;;
30249;SDS011;17064;47.974;13.826;2022-08-21T09:35:12;8.32;;;3.72;;
30249;SDS011;17064;47.974;13.826;2022-08-21T09:46:12;9.05;;;3.40;;
30249;SDS011;17064;47.974;13.826;2022-08-21T09:51:49;4.60;;;3.47;;
30249;SDS011;17064;47.974;13.826;2022-08-21T09:57:14;7.45;;;4.07;;
30249;SDS011;17064;47.974;13.826;2022-08-21T10:08:37;4.30;;;3.58;;
30249;SDS011;17064;47.974;13.826;2022-08-21T10:19:26;5.82;;;4.90;;
30249;SDS011;17064;47.974;13.826;2022-08-21T10:31:00;10.95;;;5.40;;
30249;SDS011;17064;47.974;13.826;2022-08-21T10:36:31;7.65;;;5.25;;
30249;SDS011;17064;47.974;13.826;2022-08-21T10:42:09;6.93;;;4.50;;
30249;SDS011;17064;47.974;13.826;2022-08-21T10:47:41;4.85;;;4.18;;
30249;SDS011;17064;47.974;13.826;2022-08-21T11:04:43;5.57;;;4.20;;
30249;SDS011;17064;47.974;13.826;2022-08-21T11:10:15;6.88;;;4.72;;
30249;SDS011;17064;47.974;13.826;2022-08-21T11:38:41;6.00;;;5.40;;
30249;SDS011;17064;47.974;13.826;2022-08-21T11:44:16;6.82;;;5.78;;
30249;SDS011;17064;47.974;13.826;2022-08-21T11:49:46;9.03;;;5.80;;
30249;SDS011;17064;47.974;13.826;2022-08-21T11:55:15;5.80;;;5.28;;
30249;SDS011;17064;47.974;13.826;2022-08-21T12:00:51;6.75;;;5.50;;
30249;SDS011;17064;47.974;13.826;2022-08-21T12:06:37;5.65;;;4.93;;
30249;SDS011;17064;47.974;13.826;2022-08-21T12:12:44;10.70;;;5.15;;
30249;SDS011;17064;47.974;13.826;2022-08-21T12:17:56;5.70;;;4.10;;
30249;SDS011;17064;47.974;13.826;2022-08-21T12:23:30;8.00;;;4.43;;
30249;SDS011;17064;47.974;13.826;2022-08-21T12:29:14;5.45;;;3.78;;
30249;SDS011;17064;47.974;13.826;2022-08-21T12:34:46;5.28;;;3.92;;
30249;SDS011;17064;47.974;13.826;2022-08-21T12:40:18;4.57;;;3.80;;
30249;SDS011;17064;47.974;13.826;2022-08-21T12:45:47;4.33;;;3.63;;
30249;SDS011;17064;47.974;13.826;2022-08-21T12:51:12;5.72;;;3.53;;
30249;SDS011;17064;47.974;13.826;2022-08-21T12:56:39;5.32;;;3.40;;
30249;SDS011;17064;47.974;13.826;2022-08-21T13:02:00;3.45;;;3.17;;
30249;SDS011;17064;47.974;13.826;2022-08-21T13:07:27;5.68;;;3.58;;
30249;SDS011;17064;47.974;13.826;2022-08-21T13:12:57;3.80;;;3.40;;
30249;SDS011;17064;47.974;13.826;2022-08-21T13:18:21;5.47;;;3.75;;
30249;SDS011;17064;47.974;13.826;2022-08-21T13:23:44;7.15;;;3.40;;
30249;SDS011;17064;47.974;13.826;2022-08-21T13:29:09;4.35;;;3.22;;
30249;SDS011;17064;47.974;13.826;2022-08-21T13:34:33;5.10;;;3.70;;
30249;SDS011;17064;47.974;13.826;2022-08-21T13:39:56;3.60;;;2.63;;
30249;SDS011;17064;47.974;13.826;2022-08-21T13:45:29;3.17;;;2.88;;
30249;SDS011;17064;47.974;13.826;2022-08-21T13:50:52;10.90;;;2.80;;
30249;SDS011;17064;47.974;13.826;2022-08-21T13:56:31;3.70;;;3.05;;
30249;SDS011;17064;47.974;13.826;2022-08-21T14:02:10;9.38;;;3.30;;
30249;SDS011;17064;47.974;13.826;2022-08-21T14:07:39;5.07;;;3.45;;
30249;SDS011;17064;47.974;13.826;2022-08-21T14:13:03;7.28;;;3.63;;
30249;SDS011;17064;47.974;13.826;2022-08-21T14:18:27;3.17;;;2.88;;
30249;SDS011;17064;47.974;13.826;2022-08-21T14:23:58;5.90;;;3.23;;
30249;SDS011;17064;47.974;13.826;2022-08-21T14:29:26;4.32;;;3.15;;
30249;SDS011;17064;47.974;13.826;2022-08-21T14:34:53;7.22;;;3.75;;
30249;SDS011;17064;47.974;13.826;2022-08-21T14:40:14;6.03;;;3.40;;
30249;SDS011;17064;47.974;13.826;2022-08-21T14:45:35;4.93;;;2.97;;
30249;SDS011;17064;47.974;13.826;2022-08-21T14:50:58;5.32;;;3.65;;
30249;SDS011;17064;47.974;13.826;2022-08-21T14:56:20;4.28;;;3.67;;
30249;SDS011;17064;47.974;13.826;2022-08-21T15:01:41;3.35;;;3.05;;
30249;SDS011;17064;47.974;13.826;2022-08-21T15:07:03;3.63;;;3.15;;
30249;SDS011;17064;47.974;13.826;2022-08-21T15:12:24;4.68;;;3.72;;
30249;SDS011;17064;47.974;13.826;2022-08-21T15:17:45;4.97;;;3.38;;
30249;SDS011;17064;47.974;13.826;2022-08-21T15:23:07;3.38;;;3.08;;
30249;SDS011;17064;47.974;13.826;2022-08-21T15:28:29;3.83;;;3.00;;
30249;SDS011;17064;47.974;13.826;2022-08-21T15:33:50;3.80;;;3.17;;
30249;SDS011;17064;47.974;13.826;2022-08-21T15:39:11;7.38;;;3.80;;
30249;SDS011;17064;47.974;13.826;2022-08-21T15:44:33;4.95;;;4.10;;
30249;SDS011;17064;47.974;13.826;2022-08-21T15:49:54;6.40;;;3.95;;
30249;SDS011;17064;47.974;13.826;2022-08-21T15:55:15;5.40;;;3.70;;
30249;SDS011;17064;47.974;13.826;2022-08-21T16:00:36;3.85;;;3.15;;
30249;SDS011;17064;47.974;13.826;2022-08-21T16:05:58;4.97;;;3.50;;
30249;SDS011;17064;47.974;13.826;2022-08-21T16:11:19;9.82;;;3.78;;
30249;SDS011;17064;47.974;13.826;2022-08-21T16:16:40;5.57;;;3.75;;
30249;SDS011;17064;47.974;13.826;2022-08-21T16:22:02;7.13;;;3.70;;
30249;SDS011;17064;47.974;13.826;2022-08-21T16:27:24;5.22;;;4.00;;
30249;SDS011;17064;47.974;13.826;2022-08-21T16:32:45;6.20;;;3.72;;
30249;SDS011;17064;47.974;13.826;2022-08-21T16:38:10;4.30;;;3.28;;
30249;SDS011;17064;47.974;13.826;2022-08-21T16:43:31;4.22;;;2.90;;
30249;SDS011;17064;47.974;13.826;2022-08-21T16:48:52;2.92;;;2.60;;
30249;SDS011;17064;47.974;13.826;2022-08-21T16:54:13;2.45;;;2.20;;
30249;SDS011;17064;47.974;13.826;2022-08-21T16:59:34;3.40;;;3.10;;
30249;SDS011;17064;47.974;13.826;2022-08-21T17:04:57;4.22;;;2.58;;
30249;SDS011;17064;47.974;13.826;2022-08-21T17:10:19;4.43;;;3.05;;
30249;SDS011;17064;47.974;13.826;2022-08-21T17:15:41;3.30;;;2.78;;
30249;SDS011;17064;47.974;13.826;2022-08-21T17:21:02;2.58;;;2.25;;
30249;SDS011;17064;47.974;13.826;2022-08-21T17:26:24;6.13;;;2.65;;
30249;SDS011;17064;47.974;13.826;2022-08-21T17:31:45;3.63;;;2.72;;
30249;SDS011;17064;47.974;13.826;2022-08-21T17:37:07;3.92;;;2.65;;
30249;SDS011;17064;47.974;13.826;2022-08-21T17:42:28;5.05;;;2.65;;
30249;SDS011;17064;47.974;13.826;2022-08-21T17:47:49;3.47;;;3.10;;
30249;SDS011;17064;47.974;13.826;2022-08-21T17:53:10;3.03;;;2.72;;
30249;SDS011;17064;47.974;13.826;2022-08-21T17:58:32;3.45;;;2.40;;
30249;SDS011;17064;47.974;13.826;2022-08-21T18:03:54;4.20;;;3.08;;
30249;SDS011;17064;47.974;13.826;2022-08-21T18:09:15;3.60;;;2.85;;
30249;SDS011;17064;47.974;13.826;2022-08-21T18:14:36;5.25;;;3.28;;
30249;SDS011;17064;47.974;13.826;2022-08-21T18:19:58;4.45;;;2.92;;
30249;SDS011;17064;47.974;13.826;2022-08-21T18:25:19;8.85;;;2.97;;
30249;SDS011;17064;47.974;13.826;2022-08-21T18:30:41;3.58;;;2.92;;
30249;SDS011;17064;47.974;13.826;2022-08-21T18:36:03;5.22;;;3.25;;
30249;SDS011;17064;47.974;13.826;2022-08-21T18:41:25;7.97;;;3.35;;
30249;SDS011;17064;47.974;13.826;2022-08-21T18:46:54;4.57;;;3.42;;
30249;SDS011;17064;47.974;13.826;2022-08-21T18:52:18;4.20;;;3.17;;
30249;SDS011;17064;47.974;13.826;2022-08-21T18:57:39;4.18;;;3.35;;
30249;SDS011;17064;47.974;13.826;2022-08-21T19:03:01;3.60;;;3.30;;
30249;SDS011;17064;47.974;13.826;2022-08-21T19:08:22;4.65;;;3.25;;
30249;SDS011;17064;47.974;13.826;2022-08-21T19:13:48;5.63;;;4.32;;
30249;SDS011;17064;47.974;13.826;2022-08-21T19:19:10;4.80;;;3.47;;
30249;SDS011;17064;47.974;13.826;2022-08-21T19:24:32;4.40;;;4.00;;
30249;SDS011;17064;47.974;13.826;2022-08-21T19:29:53;5.55;;;3.33;;
30249;SDS011;17064;47.974;13.826;2022-08-21T19:35:14;5.72;;;3.90;;
30249;SDS011;17064;47.974;13.826;2022-08-21T19:40:37;4.95;;;3.90;;
30249;SDS011;17064;47.974;13.826;2022-08-21T19:45:58;4.03;;;3.47;;
30249;SDS011;17064;47.974;13.826;2022-08-21T19:51:21;3.95;;;3.58;;
30249;SDS011;17064;47.974;13.826;2022-08-21T19:56:42;4.75;;;3.90;;
30249;SDS011;17064;47.974;13.826;2022-08-21T20:02:05;4.43;;;4.03;;
30249;SDS011;17064;47.974;13.826;2022-08-21T20:07:27;4.77;;;3.80;;
30249;SDS011;17064;47.974;13.826;2022-08-21T20:12:48;4.18;;;3.75;;
30249;SDS011;17064;47.974;13.826;2022-08-21T20:18:09;4.35;;;3.88;;
30249;SDS011;17064;47.974;13.826;2022-08-21T20:23:31;4.30;;;3.80;;
30249;SDS011;17064;47.974;13.826;2022-08-21T20:28:53;5.70;;;4.03;;
30249;SDS011;17064;47.974;13.826;2022-08-21T20:34:14;5.18;;;3.97;;
30249;SDS011;17064;47.974;13.826;2022-08-21T20:39:35;5.60;;;3.70;;
30249;SDS011;17064;47.974;13.826;2022-08-21T20:44:56;5.65;;;3.97;;
30249;SDS011;17064;47.974;13.826;2022-08-21T20:50:18;4.65;;;3.78;;
30249;SDS011;17064;47.974;13.826;2022-08-21T20:55:45;3.97;;;3.50;;
30249;SDS011;17064;47.974;13.826;2022-08-21T21:01:09;4.75;;;3.88;;
30249;SDS011;17064;47.974;13.826;2022-08-21T21:06:30;4.50;;;3.70;;
30249;SDS011;17064;47.974;13.826;2022-08-21T21:11:54;7.07;;;3.95;;
30249;SDS011;17064;47.974;13.826;2022-08-21T21:17:29;6.18;;;4.18;;
30249;SDS011;17064;47.974;13.826;2022-08-21T21:23:22;5.32;;;3.88;;
30249;SDS011;17064;47.974;13.826;2022-08-21T21:28:53;4.72;;;4.22;;
30249;SDS011;17064;47.974;13.826;2022-08-21T21:34:36;5.57;;;4.20;;
30249;SDS011;17064;47.974;13.826;2022-08-21T21:51:08;6.22;;;5.45;;
30249;SDS011;17064;47.974;13.826;2022-08-21T21:56:49;7.50;;;5.10;;
30249;SDS011;17064;47.974;13.826;2022-08-21T22:02:26;4.82;;;4.35;;
30249;SDS011;17064;47.974;13.826;2022-08-21T22:08:14;5.50;;;4.60;;
30249;SDS011;17064;47.974;13.826;2022-08-21T22:13:42;9.18;;;5.55;;
30249;SDS011;17064;47.974;13.826;2022-08-21T22:19:28;5.68;;;4.88;;
30249;SDS011;17064;47.974;13.826;2022-08-21T22:25:03;6.93;;;4.72;;
30249;SDS011;17064;47.974;13.826;2022-08-21T22:36:15;6.45;;;5.03;;
30249;SDS011;17064;47.974;13.826;2022-08-21T22:41:41;5.55;;;4.75;;
30249;SDS011;17064;47.974;13.826;2022-08-21T22:47:04;7.20;;;5.50;;
30249;SDS011;17064;47.974;13.826;2022-08-21T22:52:34;6.25;;;4.78;;
